Time;durP1;ratioP1;P1;durP2;ratioP2;P2;SDS_P1;SDS_P2;PMS_P1;PMS_P2;Temp;Humidity;BMP_temperature;BMP_pressure;BME280_temperature;BME280_humidity;BME280_pressure;Samples;Min_cycle;Max_cycle;Signal;HPM_P1;HPM_P2
2023/01/13 00:04:15;;;;;;;10.25;5.72;;;;;;;;;;10429736;28;20499;-72
2023/01/13 00:09:15;;;;;;;9.40;5.00;;;;;;;;;;10421678;28;20025;-73
2023/01/13 00:14:17;;;;;;;11.07;6.10;;;;;;;;;;10430268;28;20017;-74
2023/01/13 00:19:17;;;;;;;13.40;6.20;;;;;;;;;;10449604;28;20054;-75
2023/01/13 00:24:17;;;;;;;10.80;5.70;;;;;;;;;;10429187;28;20063;-76
2023/01/13 00:29:17;;;;;;;14.10;7.32;;;;;;;;;;10446003;28;20019;-77
2023/01/13 00:34:18;;;;;;;11.07;6.87;;;;;;;;;;10429315;28;20025;-73
2023/01/13 00:39:18;;;;;;;10.52;6.03;;;;;;;;;;10429292;28;20033;-75
2023/01/13 00:44:18;;;;;;;10.10;5.85;;;;;;;;;;10434690;28;20021;-77
2023/01/13 00:49:18;;;;;;;14.10;6.30;;;;;;;;;;10412386;28;20053;-73
2023/01/13 00:54:19;;;;;;;11.38;6.57;;;;;;;;;;10427721;28;20021;-76
2023/01/13 00:59:19;;;;;;;15.07;7.00;;;;;;;;;;10444760;28;20047;-71
2023/01/13 01:04:19;;;;;;;14.55;7.05;;;;;;;;;;10428394;28;20143;-72
2023/01/13 01:09:20;;;;;;;12.33;6.80;;;;;;;;;;10437639;28;20517;-72
2023/01/13 01:14:20;;;;;;;12.77;6.68;;;;;;;;;;10433395;28;20260;-73
2023/01/13 01:19:20;;;;;;;12.13;6.88;;;;;;;;;;10451030;28;20031;-74
2023/01/13 01:24:20;;;;;;;10.73;5.80;;;;;;;;;;10427734;28;20025;-77
2023/01/13 01:29:22;;;;;;;8.43;5.47;;;;;;;;;;10428318;28;20017;-79
2023/01/13 01:34:22;;;;;;;11.18;5.75;;;;;;;;;;10426091;28;20064;-73
2023/01/13 01:39:22;;;;;;;9.50;5.97;;;;;;;;;;10426445;28;20167;-73
2023/01/13 01:44:41;;;;;;;9.73;5.75;;;;;;;;;;10443126;28;20123;-76
2023/01/13 01:49:41;;;;;;;8.20;5.35;;;;;;;;;;10425513;28;20049;-77
2023/01/13 01:54:42;;;;;;;10.88;5.93;;;;;;;;;;10425612;28;20025;-70
2023/01/13 01:59:42;;;;;;;10.13;5.82;;;;;;;;;;10415138;28;20029;-75
2023/01/13 02:04:49;;;;;;;13.77;6.70;;;;;;;;;;10385111;28;20359;-74
2023/01/13 02:09:50;;;;;;;11.52;6.68;;;;;;;;;;10431106;28;20112;-74
2023/01/13 02:14:50;;;;;;;10.55;5.60;;;;;;;;;;10442947;28;20402;-73
2023/01/13 02:20:03;;;;;;;10.88;5.53;;;;;;;;;;10442515;28;20628;-77
2023/01/13 02:25:09;;;;;;;10.85;6.00;;;;;;;;;;10424309;28;20055;-72
2023/01/13 02:35:37;;;;;;;9.68;6.30;;;;;;;;;;10399415;28;20021;-72
2023/01/13 02:40:41;;;;;;;10.73;5.03;;;;;;;;;;10410435;28;20033;-73
2023/01/13 02:45:45;;;;;;;11.75;5.50;;;;;;;;;;10423876;28;20020;-74
2023/01/13 02:50:57;;;;;;;8.07;5.25;;;;;;;;;;10440391;28;20079;-74
2023/01/13 02:55:58;;;;;;;8.55;5.78;;;;;;;;;;10458863;28;20009;-71
2023/01/13 03:00:58;;;;;;;13.55;7.30;;;;;;;;;;10453543;28;20024;-70
2023/01/13 03:06:07;;;;;;;15.77;7.72;;;;;;;;;;10451087;28;20036;-72
2023/01/13 03:11:10;;;;;;;15.65;6.70;;;;;;;;;;10439006;28;20120;-75
2023/01/13 03:16:30;;;;;;;13.15;6.97;;;;;;;;;;10437820;28;20084;-79
2023/01/13 03:21:46;;;;;;;12.90;7.45;;;;;;;;;;10431934;28;20021;-76
2023/01/13 03:26:49;;;;;;;13.20;6.03;;;;;;;;;;10437101;28;20025;-71
2023/01/13 03:31:52;;;;;;;18.20;8.35;;;;;;;;;;10454804;28;20035;-78
2023/01/13 03:36:55;;;;;;;13.27;7.78;;;;;;;;;;10437200;28;20472;-78
2023/01/13 03:42:02;;;;;;;11.10;6.43;;;;;;;;;;10436667;28;20021;-79
2023/01/13 03:47:09;;;;;;;13.07;7.88;;;;;;;;;;10454873;28;20049;-76
2023/01/13 03:52:12;;;;;;;11.60;7.28;;;;;;;;;;10436794;28;20565;-73
2023/01/13 03:57:13;;;;;;;11.60;6.78;;;;;;;;;;10455076;28;20090;-77
2023/01/13 04:02:20;;;;;;;15.18;7.70;;;;;;;;;;10436425;28;20024;-73
2023/01/13 04:07:36;;;;;;;12.02;7.28;;;;;;;;;;10413756;28;20021;-76
2023/01/13 04:13:00;;;;;;;13.43;7.68;;;;;;;;;;10429335;28;20056;-72
2023/01/13 04:18:16;;;;;;;12.35;7.32;;;;;;;;;;10429991;28;20395;-78
2023/01/13 04:23:17;;;;;;;8.93;6.30;;;;;;;;;;10413568;28;20347;-74
2023/01/13 04:28:18;;;;;;;12.43;6.85;;;;;;;;;;10441847;28;20086;-75
2023/01/13 04:33:18;;;;;;;10.63;6.30;;;;;;;;;;10446649;28;20094;-73
2023/01/13 04:38:19;;;;;;;10.70;6.05;;;;;;;;;;10446964;28;20021;-73
2023/01/13 04:43:19;;;;;;;9.93;5.88;;;;;;;;;;10407435;28;20104;-71
2023/01/13 04:48:19;;;;;;;13.27;7.03;;;;;;;;;;10407136;28;20037;-72
2023/01/13 04:53:20;;;;;;;10.80;6.75;;;;;;;;;;10432915;28;20108;-74
2023/01/13 04:58:21;;;;;;;12.20;7.18;;;;;;;;;;10434293;28;20022;-73
2023/01/13 05:03:23;;;;;;;12.65;7.15;;;;;;;;;;10435913;28;20052;-76
2023/01/13 05:08:23;;;;;;;13.77;7.07;;;;;;;;;;10432117;28;20025;-76
2023/01/13 05:18:43;;;;;;;12.40;7.38;;;;;;;;;;10442249;28;20029;-77
2023/01/13 05:29:02;;;;;;;17.52;8.55;;;;;;;;;;10443415;28;20309;-73
2023/01/13 05:34:02;;;;;;;14.27;8.25;;;;;;;;;;10425576;28;20044;-72
2023/01/13 05:39:04;;;;;;;17.52;7.57;;;;;;;;;;10425327;28;20118;-76
2023/01/13 05:44:04;;;;;;;23.60;8.43;;;;;;;;;;10443650;28;20024;-71
2023/01/13 05:49:05;;;;;;;29.15;7.93;;;;;;;;;;10424649;28;20435;-76
2023/01/13 05:54:05;;;;;;;21.00;7.28;;;;;;;;;;10425381;28;20021;-77
2023/01/13 05:59:06;;;;;;;13.77;7.68;;;;;;;;;;10424794;28;20021;-74
2023/01/13 06:04:06;;;;;;;12.95;7.45;;;;;;;;;;10441588;28;20228;-73
2023/01/13 06:09:06;;;;;;;15.25;9.05;;;;;;;;;;10442415;28;20032;-72
2023/01/13 06:14:06;;;;;;;18.23;8.48;;;;;;;;;;10424209;28;20028;-73
2023/01/13 06:19:08;;;;;;;17.67;9.32;;;;;;;;;;10441385;28;20020;-76
2023/01/13 06:24:09;;;;;;;15.27;8.93;;;;;;;;;;10441935;28;20044;-74
2023/01/13 06:29:12;;;;;;;17.83;9.15;;;;;;;;;;10440473;28;20100;-73
2023/01/13 06:34:13;;;;;;;18.98;9.50;;;;;;;;;;10441297;28;20024;-77
2023/01/13 06:39:16;;;;;;;19.25;10.32;;;;;;;;;;10396022;28;20013;-78
2023/01/13 06:44:17;;;;;;;17.50;10.23;;;;;;;;;;10422826;28;20025;-74
2023/01/13 06:49:17;;;;;;;19.70;9.32;;;;;;;;;;10424683;28;20072;-72
2023/01/13 06:54:17;;;;;;;26.75;9.80;;;;;;;;;;10434796;28;20080;-75
2023/01/13 06:59:18;;;;;;;18.08;9.65;;;;;;;;;;10442697;28;20027;-79
2023/01/13 07:04:18;;;;;;;22.05;10.52;;;;;;;;;;10433129;28;20025;-76
2023/01/13 07:09:18;;;;;;;24.35;10.32;;;;;;;;;;10429808;28;20029;-79
2023/01/13 07:19:38;;;;;;;27.10;9.38;;;;;;;;;;10441180;28;20032;-75
2023/01/13 07:24:39;;;;;;;19.05;10.73;;;;;;;;;;10422587;28;20483;-76
2023/01/13 07:29:39;;;;;;;23.58;11.65;;;;;;;;;;10440612;28;20024;-77
2023/01/13 07:34:39;;;;;;;24.80;11.63;;;;;;;;;;10422637;28;20036;-78
2023/01/13 07:39:40;;;;;;;16.83;8.70;;;;;;;;;;10424129;28;20267;-73
2023/01/13 07:44:40;;;;;;;20.10;8.98;;;;;;;;;;10447975;28;20124;-72
2023/01/13 07:49:40;;;;;;;17.83;7.75;;;;;;;;;;10429578;28;20053;-72
2023/01/13 07:54:41;;;;;;;16.80;7.88;;;;;;;;;;10429961;28;20066;-78
2023/01/13 07:59:41;;;;;;;8.47;5.53;;;;;;;;;;10429567;28;20517;-77
2023/01/13 08:04:41;;;;;;;20.95;5.95;;;;;;;;;;10429834;28;20389;-75
2023/01/13 08:09:41;;;;;;;19.00;6.22;;;;;;;;;;10429092;28;20119;-77
2023/01/13 08:14:42;;;;;;;16.27;7.67;;;;;;;;;;10435372;28;20032;-76
2023/01/13 08:19:42;;;;;;;12.48;6.45;;;;;;;;;;10446156;28;20031;-73
2023/01/13 08:24:42;;;;;;;12.73;5.72;;;;;;;;;;10427212;28;20009;-73
2023/01/13 08:29:43;;;;;;;17.47;7.63;;;;;;;;;;10444904;28;20043;-72
2023/01/13 08:34:43;;;;;;;12.15;6.38;;;;;;;;;;10435746;28;20031;-70
2023/01/13 08:39:43;;;;;;;22.17;8.55;;;;;;;;;;10432585;28;20082;-73
2023/01/13 08:44:43;;;;;;;17.20;6.65;;;;;;;;;;10413239;28;20149;-71
2023/01/13 08:49:44;;;;;;;12.43;6.33;;;;;;;;;;10424928;28;20367;-71
2023/01/13 08:54:44;;;;;;;16.73;6.13;;;;;;;;;;10422113;28;20470;-72
2023/01/13 08:59:45;;;;;;;13.13;6.10;;;;;;;;;;10442760;28;20267;-72
2023/01/13 09:04:45;;;;;;;11.88;5.53;;;;;;;;;;10424502;28;20032;-74
2023/01/13 09:09:48;;;;;;;12.10;5.07;;;;;;;;;;10422404;28;20048;-72
2023/01/13 09:14:51;;;;;;;7.95;4.50;;;;;;;;;;10448914;28;20023;-80
2023/01/13 09:19:52;;;;;;;12.20;5.53;;;;;;;;;;10416345;28;20056;-72
2023/01/13 09:24:53;;;;;;;10.00;6.20;;;;;;;;;;10428957;28;20083;-73
2023/01/13 09:29:53;;;;;;;17.10;6.80;;;;;;;;;;10428478;28;20538;-74
2023/01/13 09:34:59;;;;;;;14.90;7.65;;;;;;;;;;10423161;28;20487;-76
2023/01/13 09:40:00;;;;;;;17.27;8.52;;;;;;;;;;10423464;28;20021;-71
2023/01/13 09:45:04;;;;;;;16.73;7.05;;;;;;;;;;10424609;28;20032;-71
2023/01/13 09:50:16;;;;;;;11.63;5.45;;;;;;;;;;10443725;28;20083;-75
2023/01/13 09:55:18;;;;;;;8.98;4.80;;;;;;;;;;10425457;28;20021;-72
2023/01/13 10:00:23;;;;;;;16.38;5.53;;;;;;;;;;10442487;28;20058;-74
2023/01/13 10:05:31;;;;;;;6.75;3.72;;;;;;;;;;10440471;28;20410;-72
2023/01/13 10:10:34;;;;;;;10.13;4.55;;;;;;;;;;10424116;28;20036;-74
2023/01/13 10:15:34;;;;;;;13.23;5.90;;;;;;;;;;10423277;28;20495;-72
2023/01/13 10:20:41;;;;;;;14.33;4.00;;;;;;;;;;10439518;28;20029;-77
2023/01/13 10:26:07;;;;;;;7.50;3.42;;;;;;;;;;10421563;28;20343;-72
2023/01/13 10:31:12;;;;;;;11.25;4.13;;;;;;;;;;10401405;28;20094;-73
2023/01/13 10:36:13;;;;;;;3.92;2.75;;;;;;;;;;10439198;28;20074;-77
2023/01/13 10:41:14;;;;;;;4.22;2.55;;;;;;;;;;10439110;28;20490;-73
2023/01/13 10:46:17;;;;;;;6.53;2.80;;;;;;;;;;10421117;28;20120;-72
2023/01/13 10:51:20;;;;;;;9.10;3.50;;;;;;;;;;10417079;28;20451;-76
2023/01/13 10:56:21;;;;;;;12.98;4.85;;;;;;;;;;10412589;28;20688;-74
2023/01/13 11:01:25;;;;;;;9.82;4.25;;;;;;;;;;10438282;28;20021;-71
2023/01/13 11:06:28;;;;;;;8.93;4.40;;;;;;;;;;10438559;28;20044;-77
2023/01/13 11:11:31;;;;;;;9.05;4.45;;;;;;;;;;10411661;28;20025;-76
2023/01/13 11:16:33;;;;;;;5.55;2.70;;;;;;;;;;10421031;28;20017;-76
2023/01/13 11:21:38;;;;;;;8.20;3.40;;;;;;;;;;10416789;28;20032;-76
2023/01/13 11:26:57;;;;;;;3.63;2.58;;;;;;;;;;10431472;28;20643;-74
2023/01/13 11:32:02;;;;;;;4.53;2.97;;;;;;;;;;10423479;28;20101;-73
2023/01/13 11:37:08;;;;;;;13.25;3.78;;;;;;;;;;10448829;28;20109;-78
2023/01/13 11:42:20;;;;;;;8.60;4.38;;;;;;;;;;10434279;28;20029;-75
2023/01/13 11:47:22;;;;;;;6.63;3.75;;;;;;;;;;10444886;28;20024;-73
2023/01/13 11:52:32;;;;;;;11.98;4.88;;;;;;;;;;10449363;28;20068;-74
2023/01/13 11:57:42;;;;;;;12.52;4.18;;;;;;;;;;10456031;28;20025;-74
2023/01/13 12:02:45;;;;;;;9.60;4.22;;;;;;;;;;10444904;28;20047;-72
2023/01/13 12:07:51;;;;;;;9.18;4.28;;;;;;;;;;10425641;28;20025;-72
2023/01/13 12:13:00;;;;;;;10.13;4.03;;;;;;;;;;10427572;28;20059;-76
2023/01/13 12:18:01;;;;;;;11.93;5.35;;;;;;;;;;10443984;28;20093;-72
2023/01/13 12:23:05;;;;;;;7.60;4.45;;;;;;;;;;10424545;28;20101;-72
2023/01/13 12:28:12;;;;;;;11.15;4.35;;;;;;;;;;10439289;28;20441;-76
2023/01/13 12:33:18;;;;;;;10.85;4.65;;;;;;;;;;10423020;28;20021;-75
2023/01/13 12:38:24;;;;;;;8.48;4.72;;;;;;;;;;10426166;28;20021;-77
2023/01/13 12:48:53;;;;;;;14.65;5.07;;;;;;;;;;10444630;28;20044;-72
2023/01/13 12:53:55;;;;;;;10.25;5.10;;;;;;;;;;10483283;22;20057;-76
2023/01/13 12:59:15;;;;;;;12.32;5.95;;;;;;;;;;10466254;28;20045;-77
2023/01/13 13:04:19;;;;;;;15.10;7.75;;;;;;;;;;10467240;28;20027;-79
2023/01/13 13:09:25;;;;;;;16.73;7.22;;;;;;;;;;10467868;28;20090;-72
2023/01/13 13:14:37;;;;;;;13.20;6.72;;;;;;;;;;10467142;28;20023;-75
2023/01/13 13:19:39;;;;;;;11.32;6.50;;;;;;;;;;10466244;28;20032;-72
2023/01/13 13:24:40;;;;;;;11.57;5.95;;;;;;;;;;10465266;28;20035;-74
2023/01/13 13:29:45;;;;;;;12.25;5.90;;;;;;;;;;10460323;28;20028;-75
2023/01/13 13:34:54;;;;;;;9.95;6.20;;;;;;;;;;10465966;28;20035;-73
2023/01/13 13:50:55;;;;;;;14.43;6.57;;;;;;;;;;10483494;28;20482;-72
2023/01/13 13:55:58;;;;;;;30.98;13.93;;;;;;;;;;10478204;28;20053;-73
2023/01/13 14:00:59;;;;;;;16.98;6.55;;;;;;;;;;10451116;28;20024;-74
2023/01/13 14:06:04;;;;;;;14.85;6.05;;;;;;;;;;10459158;28;20066;-75
2023/01/13 14:11:23;;;;;;;15.00;7.07;;;;;;;;;;10483720;28;20560;-75
2023/01/13 14:16:23;;;;;;;12.82;6.60;;;;;;;;;;10471778;28;20030;-75
2023/01/13 14:21:23;;;;;;;12.43;7.00;;;;;;;;;;10471706;28;20033;-76
2023/01/13 14:26:25;;;;;;;12.77;6.53;;;;;;;;;;10428000;22;20545;-72
2023/01/13 14:31:25;;;;;;;13.77;5.97;;;;;;;;;;10413962;28;20020;-75
2023/01/13 14:36:29;;;;;;;14.38;6.38;;;;;;;;;;10421126;28;20114;-71
2023/01/13 14:41:42;;;;;;;17.38;7.72;;;;;;;;;;10439609;28;20468;-80
2023/01/13 14:46:44;;;;;;;19.83;6.07;;;;;;;;;;10412100;28;20033;-72
2023/01/13 14:51:45;;;;;;;12.52;6.47;;;;;;;;;;10427394;28;20473;-78
2023/01/13 14:56:50;;;;;;;15.55;7.35;;;;;;;;;;10414595;28;20413;-73
2023/01/13 15:01:51;;;;;;;12.20;7.35;;;;;;;;;;10409461;28;20053;-73
2023/01/13 15:06:53;;;;;;;16.33;6.82;;;;;;;;;;10424791;28;20032;-73
2023/01/13 15:11:57;;;;;;;9.98;6.00;;;;;;;;;;10403884;28;20481;-78
2023/01/13 15:16:57;;;;;;;9.68;6.03;;;;;;;;;;10420226;28;20534;-73
2023/01/13 15:21:58;;;;;;;14.00;6.63;;;;;;;;;;10418267;28;20045;-78
2023/01/13 15:26:58;;;;;;;9.77;6.40;;;;;;;;;;10420604;28;20494;-75
2023/01/13 15:31:58;;;;;;;11.77;6.53;;;;;;;;;;10420330;28;20234;-76
2023/01/13 15:36:58;;;;;;;14.27;6.82;;;;;;;;;;10418646;28;20029;-76
2023/01/13 15:47:18;;;;;;;17.25;7.25;;;;;;;;;;10437472;28;20415;-72
2023/01/13 15:52:20;;;;;;;15.35;6.40;;;;;;;;;;10440496;28;20202;-73
2023/01/13 15:57:28;;;;;;;11.55;7.53;;;;;;;;;;10420867;28;20556;-74
2023/01/13 16:02:30;;;;;;;17.10;8.77;;;;;;;;;;10416064;28;20562;-74
2023/01/13 16:07:30;;;;;;;11.10;6.00;;;;;;;;;;10444410;28;20637;-74
2023/01/13 16:12:31;;;;;;;14.02;9.30;;;;;;;;;;10444106;28;20075;-72
2023/01/13 16:17:32;;;;;;;20.92;9.95;;;;;;;;;;10426328;28;20024;-72
2023/01/13 16:22:32;;;;;;;22.52;11.52;;;;;;;;;;10444782;28;20478;-72
2023/01/13 16:27:33;;;;;;;23.33;12.25;;;;;;;;;;10424243;28;20035;-72
2023/01/13 16:32:33;;;;;;;23.05;11.80;;;;;;;;;;10442024;28;20029;-72
2023/01/13 16:37:33;;;;;;;20.33;11.67;;;;;;;;;;10424910;28;20363;-72
2023/01/13 16:42:33;;;;;;;19.88;12.52;;;;;;;;;;10422682;28;20044;-73
2023/01/13 16:47:35;;;;;;;22.55;11.65;;;;;;;;;;10441224;28;20041;-74
2023/01/13 16:52:35;;;;;;;19.10;10.38;;;;;;;;;;10440500;28;20043;-72
2023/01/13 16:57:36;;;;;;;16.33;9.73;;;;;;;;;;10422802;28;20029;-71
2023/01/13 17:02:36;;;;;;;16.35;8.75;;;;;;;;;;10423991;28;20036;-72
2023/01/13 17:07:37;;;;;;;18.77;9.98;;;;;;;;;;10449197;28;20044;-76
2023/01/13 17:12:37;;;;;;;39.37;15.03;;;;;;;;;;10443820;28;20485;-73
2023/01/13 17:17:38;;;;;;;51.55;21.08;;;;;;;;;;10441792;28;20508;-75
2023/01/13 17:22:38;;;;;;;59.83;20.27;;;;;;;;;;10416654;28;20061;-74
2023/01/13 17:27:40;;;;;;;64.35;25.13;;;;;;;;;;10438151;22;20048;-73
2023/01/13 17:32:40;;;;;;;47.72;22.58;;;;;;;;;;10461888;28;20027;-75
2023/01/13 17:37:41;;;;;;;54.45;23.13;;;;;;;;;;10455476;28;20031;-78
2023/01/13 17:42:41;;;;;;;50.28;21.33;;;;;;;;;;10458437;28;20530;-72
2023/01/13 17:47:41;;;;;;;38.60;17.60;;;;;;;;;;10458242;28;20494;-71
2023/01/13 17:52:41;;;;;;;34.78;14.75;;;;;;;;;;10453160;28;20279;-71
2023/01/13 17:57:42;;;;;;;35.25;15.32;;;;;;;;;;10472933;28;20035;-70
2023/01/13 18:02:43;;;;;;;47.08;14.73;;;;;;;;;;10466588;28;20077;-73
2023/01/13 18:07:44;;;;;;;31.85;13.93;;;;;;;;;;10461239;28;20036;-78
2023/01/13 18:12:44;;;;;;;26.20;11.30;;;;;;;;;;10450046;28;20028;-76
2023/01/13 18:17:45;;;;;;;23.63;10.43;;;;;;;;;;10454512;28;20068;-74
2023/01/13 18:28:04;;;;;;;22.52;10.35;;;;;;;;;;10448868;28;20057;-73
2023/01/13 18:33:05;;;;;;;24.70;10.97;;;;;;;;;;10417427;28;20491;-74
2023/01/13 18:38:07;;;;;;;27.70;11.02;;;;;;;;;;10427071;28;20025;-78
2023/01/13 18:43:07;;;;;;;22.27;11.05;;;;;;;;;;10442204;28;20035;-76
2023/01/13 18:48:07;;;;;;;27.52;12.20;;;;;;;;;;10425527;28;20024;-71
2023/01/13 18:53:07;;;;;;;26.70;11.77;;;;;;;;;;10411935;28;20061;-74
2023/01/13 18:58:08;;;;;;;23.73;11.20;;;;;;;;;;10429465;28;20035;-72
2023/01/13 19:03:08;;;;;;;32.92;13.20;;;;;;;;;;10402224;28;20029;-74
2023/01/13 19:08:08;;;;;;;37.90;12.60;;;;;;;;;;10393731;28;20037;-79
2023/01/13 19:13:09;;;;;;;23.95;11.20;;;;;;;;;;10436984;28;20036;-74
2023/01/13 19:18:09;;;;;;;43.65;15.10;;;;;;;;;;10440820;28;20060;-76
2023/01/13 19:23:10;;;;;;;31.40;15.13;;;;;;;;;;10428106;28;20036;-72
2023/01/13 19:28:10;;;;;;;32.70;14.05;;;;;;;;;;10423694;28;20064;-71
2023/01/13 19:33:11;;;;;;;29.42;13.25;;;;;;;;;;10402113;28;20029;-71
2023/01/13 19:38:11;;;;;;;30.10;13.13;;;;;;;;;;10426460;28;20033;-71
2023/01/13 19:48:30;;;;;;;42.38;16.73;;;;;;;;;;10482816;28;20036;-75
2023/01/13 19:53:31;;;;;;;37.63;17.10;;;;;;;;;;10441959;28;20045;-76
2023/01/13 19:58:31;;;;;;;41.80;18.40;;;;;;;;;;10435256;28;20032;-74
2023/01/13 20:03:34;;;;;;;35.92;16.45;;;;;;;;;;10423919;28;20063;-73
2023/01/13 20:08:36;;;;;;;41.22;17.65;;;;;;;;;;10404405;28;20021;-76
2023/01/13 20:13:36;;;;;;;41.85;18.27;;;;;;;;;;10423239;28;20063;-75
2023/01/13 20:18:37;;;;;;;43.70;19.13;;;;;;;;;;10423902;28;20112;-71
2023/01/13 20:23:37;;;;;;;39.07;16.63;;;;;;;;;;10424647;28;20102;-77
2023/01/13 20:28:38;;;;;;;47.10;17.92;;;;;;;;;;10426514;28;20053;-74
2023/01/13 20:33:39;;;;;;;40.13;17.23;;;;;;;;;;10425109;28;20084;-75
2023/01/13 20:38:39;;;;;;;41.45;16.90;;;;;;;;;;10436487;28;20195;-72
2023/01/13 20:43:39;;;;;;;46.05;19.73;;;;;;;;;;10391393;28;20052;-72
2023/01/13 20:48:39;;;;;;;40.80;19.23;;;;;;;;;;10416665;28;20037;-73
2023/01/13 20:53:40;;;;;;;38.75;18.95;;;;;;;;;;10425556;28;20239;-72
2023/01/13 20:58:40;;;;;;;42.25;19.80;;;;;;;;;;10427259;28;20024;-72
2023/01/13 21:03:40;;;;;;;47.63;22.30;;;;;;;;;;10442277;28;20147;-78
2023/01/13 21:08:41;;;;;;;53.78;22.40;;;;;;;;;;10434187;28;20041;-77
2023/01/13 21:19:06;;;;;;;48.97;22.02;;;;;;;;;;10445219;28;20025;-71
2023/01/13 21:24:06;;;;;;;58.70;22.77;;;;;;;;;;10444456;28;20135;-73
2023/01/13 21:29:07;;;;;;;43.87;21.60;;;;;;;;;;10426203;28;20065;-73
2023/01/13 21:34:08;;;;;;;39.33;20.03;;;;;;;;;;10421544;28;20021;-72
2023/01/13 21:39:09;;;;;;;45.03;19.48;;;;;;;;;;10435611;28;20354;-77
2023/01/13 21:49:42;;;;;;;49.17;22.15;;;;;;;;;;10441969;28;20033;-75
2023/01/13 22:00:02;;;;;;;54.58;26.13;;;;;;;;;;10409382;28;20029;-77
2023/01/13 22:05:03;;;;;;;59.22;25.67;;;;;;;;;;10415456;28;20411;-73
2023/01/13 22:10:05;;;;;;;58.05;25.92;;;;;;;;;;10432992;28;20037;-71
2023/01/13 22:15:06;;;;;;;57.33;24.73;;;;;;;;;;10442218;28;20032;-75
2023/01/13 22:20:08;;;;;;;50.95;23.45;;;;;;;;;;10424665;28;20152;-73
2023/01/13 22:25:10;;;;;;;48.88;21.98;;;;;;;;;;10426493;28;20039;-73
2023/01/13 22:30:12;;;;;;;51.35;23.52;;;;;;;;;;10414374;28;20053;-74
2023/01/13 22:35:13;;;;;;;55.53;22.75;;;;;;;;;;10439648;28;20037;-76
2023/01/13 22:40:14;;;;;;;49.22;22.85;;;;;;;;;;10430447;28;20479;-71
2023/01/13 22:45:14;;;;;;;49.23;22.70;;;;;;;;;;10442990;28;20036;-72
2023/01/13 22:50:19;;;;;;;53.30;22.07;;;;;;;;;;10407695;28;20032;-71
2023/01/13 22:55:19;;;;;;;55.25;24.88;;;;;;;;;;10423352;28;20286;-71
2023/01/13 23:00:20;;;;;;;49.65;21.98;;;;;;;;;;10441420;28;20050;-71
2023/01/13 23:05:20;;;;;;;50.93;22.20;;;;;;;;;;10423447;28;20526;-70
2023/01/13 23:10:20;;;;;;;52.30;24.00;;;;;;;;;;10408933;28;20287;-76
2023/01/13 23:15:20;;;;;;;50.90;21.27;;;;;;;;;;10431978;28;20017;-72
2023/01/13 23:20:21;;;;;;;47.67;21.85;;;;;;;;;;10431726;28;20029;-70
2023/01/13 23:25:22;;;;;;;51.90;23.63;;;;;;;;;;10389288;28;20029;-74
2023/01/13 23:30:23;;;;;;;53.53;24.20;;;;;;;;;;10429295;28;20064;-75
2023/01/13 23:35:23;;;;;;;61.55;26.35;;;;;;;;;;10415470;28;20024;-73
2023/01/13 23:40:24;;;;;;;61.85;27.30;;;;;;;;;;10431110;28;20507;-74
2023/01/13 23:45:24;;;;;;;61.17;24.90;;;;;;;;;;10431559;28;20021;-71
2023/01/13 23:50:24;;;;;;;60.65;26.35;;;;;;;;;;10448673;28;20366;-75
2023/01/13 23:55:25;;;;;;;66.60;27.52;;;;;;;;;;10430213;28;20647;-78
